aviador You're here:

KGAF Decoded Metar

in
Report Time2017-12-15 23:15:00
UTC Time2017-12-15 23:29:17
Flight Rules mvfr MVFR
Wind130° at 08 kt
W.Decomp.*RWY 17: 6.1 kt HW 5.1 kt LCW
RWY 08: 5.1 kt HW 6.1 kt RCW
W.Rank130° ranks 20
Current wind is above 130° avg. (7.7)
Visibility4828 m
Phenomena:Mist
Clouds:Scattered 002 Hf
Overcast 012 Hf
Expected CloudBase > 400 ft AGL from Temp-Dew spread
Ceiling1,200 ft
Temp-6°C
Dew Point-7°C (93% RH)
AAT-11.7°C
QNH1005 hPa
Raw Report
KGAF 152315Z AUTO 13008KT 3SM BR SCT002 OVC012 M06/M07 A2968 RMK
AO2 PWINO=

Extra information for KGAF:More info

Social comments